• Join FlightAware (Why Join?)
  • Login
  • US Flag 
07:20AM EDT


 

Airport Tracker/Info


-or-


 

Live Flight TrackerFlight Track Log ✈ SWA16 ✈ 11-Oct-2013 ✈ KEWR - KHOU

Flight Track Log - Related Links

Times and Time Zones

All times are in EDT time to prevent confusion due to time zone crossing. See the SWA16 flight status page for this flight to view local times or setup timezone preferences in your user account.

Time Position Orientation Groundspeed Altitude Reporting Facility
EDT Latitude Longitude Course Direction KTS MPH feet Rate Location/Type
06:32AM 40.7500 -74.1833 270° West 246 283 3,300  Level New York TRACON
06:33AM 40.7500 -74.2833 270° West 282 325 5,900 2,760 Climbing New York TRACON
06:34AM 40.7419 -74.4439 266° West 317 365 10,600 2,700 Climbing New York Center
06:35AM 40.7067 -74.5761 251° West 337 388 13,100 2,940 Climbing New York Center
06:36AM 40.6669 -74.7025 248° West 365 420 16,600 3,060 Climbing New York Center
06:37AM 40.6250 -74.8314 247° West 387 445 19,300 2,520 Climbing New York Center
06:38AM 40.5808 -74.9656 247° West 398 458 21,700 2,280 Climbing New York Center
06:39AM 40.5200 -75.0928 238° Southwest 403 464 24,000 2,280 Climbing New York Center
06:40AM 40.4467 -75.2164 232° Southwest 418 481 26,300 2,100 Climbing New York Center
06:41AM 40.3711 -75.3394 231° Southwest 435 501 28,200 1,680 Climbing New York Center
06:42AM 40.2931 -75.4650 231° Southwest 440 506 29,800 1,620 Climbing New York Center
06:43AM 40.2128 -75.5956 231° Southwest 455 524 31,500 2,040 Climbing New York Center
06:44AM 40.1347 -75.7203 231° Southwest 460 529 33,900 2,040 Climbing New York Center
06:45AM 40.0608 -75.8400 231° Southwest 450 518 35,600 1,380 Climbing New York Center
06:46AM 39.9914 -75.9514 231° Southwest 450 518 36,700 1,080 Climbing New York Center
06:47AM 39.9150 -76.0731 231° Southwest 450 518 37,800 1,140 Climbing New York Center
06:48AM 39.8364 -76.1969 230° Southwest 450 518 39,100 1,080 Climbing New York Center
06:49AM 39.7558 -76.3175 229° Southwest 450 518 40,000 360 Climbing New York Center
06:51AM 39.6500 -76.4889 231° Southwest 429 494 40,000  Level Washington Center
06:52AM 39.5783 -76.5958 229° Southwest 429 494 40,000  Level Washington Center
06:52AM 39.5000 -76.7131 229° Southwest 429 494 40,000  Level Washington Center
06:53AM 39.4239 -76.8328 231° Southwest 429 494 40,000  Level Washington Center
06:55AM 39.3497 -76.9522 231° Southwest 429 494 40,000  Level Washington Center
06:55AM 39.2733 -77.0689 230° Southwest 429 494 40,000  Level Washington Center
06:57AM 39.1925 -77.1903 229° Southwest 429 494 40,000  Level Washington Center
06:58AM 39.1158 -77.3064 230° Southwest 429 494 40,000  Level Washington Center
06:59AM 39.0392 -77.4275 231° Southwest 434 499 40,000  Level Washington Center
06:59AM 38.9581 -77.5456 229° Southwest 434 499 40,000  Level Washington Center
07:01AM 38.8725 -77.6767 230° Southwest 442 509 40,000  Level Washington Center
07:02AM 38.7931 -77.7944 229° Southwest 442 509 40,000  Level Washington Center
07:02AM 38.7139 -77.9117 229° Southwest 447 514 40,000  Level Washington Center
07:04AM 38.6386 -78.0264 230° Southwest 440 506 40,000  Level Washington Center
07:04AM 38.5611 -78.1406 229° Southwest 435 501 40,000  Level Washington Center
07:05AM 38.4922 -78.2442 230° Southwest 441 507 40,000  Level Washington Center
07:06AM 38.4144 -78.3608 230° Southwest 441 507 40,000  Level Washington Center
07:08AM 38.3347 -78.4742 228° Southwest 441 507 40,000  Level Washington Center
07:09AM 38.2544 -78.6033 232° Southwest 432 497 40,000  Level Washington Center
07:10AM 38.1764 -78.7192 229° Southwest 432 497 40,000  Level Washington Center
07:11AM 38.0961 -78.8344 229° Southwest 437 503 40,000  Level Washington Center
07:11AM 38.0158 -78.9497 229° Southwest 442 509 40,000  Level Washington Center
07:12AM 37.9397 -79.0569 228° Southwest 448 516 40,000  Level Washington Center
07:14AM 37.8694 -79.1800 234° Southwest 448 516 40,000  Level Washington Center
07:15AM 37.8028 -79.3108 237° Southwest 448 516 40,000  Level Washington Center
07:15AM 37.7314 -79.4569 238° Southwest 448 516 40,000  Level Washington Center
07:16AM 37.6625 -79.5872 236° Southwest 448 516 40,000  Level Washington Center
07:18AM 37.6044 -79.7022 238° Southwest 443 510 40,000  Level Washington Center
07:19AM 37.5394 -79.8322 238° Southwest 443 510 40,000  Level Washington Center
07:20AM 37.4717 -79.9697 238° Southwest 456 525 40,000  Level Washington Center
07:21AM 37.3414 -80.2147 236° Southwest 453 521 40,000  Level Atlanta Center
07:22AM 37.2747 -80.3483 238° Southwest 448 516 40,000  Level Atlanta Center
07:23AM 37.2097 -80.4739 237° Southwest 448 516 40,000  Level Atlanta Center
07:24AM 37.1367 -80.6153 237° Southwest 443 510 40,000  Level Atlanta Center
07:25AM 37.0736 -80.7481 239° Southwest 443 510 40,000  Level Atlanta Center
07:26AM 37.0186 -80.8831 243° Southwest 443 510 40,000  Level Atlanta Center
07:27AM 36.9550 -81.0075 237° Southwest 438 504 40,000  Level Atlanta Center
07:28AM 36.8933 -81.1214 236° Southwest 438 504 40,000  Level Atlanta Center
07:29AM 36.8294 -81.2508 238° Southwest 438 504 40,000  Level Atlanta Center
07:30AM 36.7675 -81.3750 238° Southwest 438 504 40,000  Level Atlanta Center
07:31AM 36.7036 -81.5014 238° Southwest 430 495 40,000  Level Atlanta Center
07:32AM 36.6292 -81.6433 237° Southwest 441 507 40,000  Level Atlanta Center
07:33AM 36.5628 -81.7719 237° Southwest 446 513 40,000  Level Atlanta Center
07:34AM 36.4964 -81.8978 237° Southwest 446 513 40,000  Level Atlanta Center
07:35AM 36.4297 -82.0233 237° Southwest 446 513 40,000  Level Atlanta Center
07:36AM 36.3689 -82.1358 236° Southwest 446 513 40,000  Level Atlanta Center
07:37AM 36.3000 -82.2636 236° Southwest 446 513 40,000  Level Atlanta Center
07:38AM 36.2328 -82.3939 237° Southwest 446 513 40,000  Level Atlanta Center
07:39AM 36.1636 -82.5189 236° Southwest 446 513 40,000  Level Atlanta Center
07:40AM 36.0961 -82.6458 237° Southwest 446 513 40,000  Level Atlanta Center
07:41AM 36.0308 -82.7703 237° Southwest 446 513 40,000  Level Atlanta Center
07:42AM 35.9611 -82.8997 236° Southwest 446 513 40,000  Level Atlanta Center
07:43AM 35.8933 -83.0236 236° Southwest 446 513 40,000  Level Atlanta Center
07:44AM 35.8256 -83.1500 237° Southwest 446 513 40,000  Level Atlanta Center
07:45AM 35.7575 -83.2736 236° Southwest 441 507 40,000  Level Atlanta Center
07:46AM 35.6894 -83.3969 236° Southwest 441 507 40,000  Level Atlanta Center
07:47AM 35.6211 -83.5203 236° Southwest 447 514 40,000  Level Atlanta Center
07:48AM 35.5528 -83.6481 237° Southwest 447 514 40,000  Level Atlanta Center
07:49AM 35.4844 -83.7708 236° Southwest 447 514 40,000  Level Atlanta Center
07:50AM 35.4156 -83.8986 237° Southwest 447 514 40,000  Level Atlanta Center
07:51AM 35.3447 -84.0183 234° Southwest 447 514 40,000  Level Atlanta Center
07:52AM 35.2781 -84.1431 237° Southwest 447 514 40,000  Level Atlanta Center
07:53AM 35.2069 -84.2675 235° Southwest 447 514 40,000  Level Atlanta Center
07:54AM 35.1336 -84.3969 235° Southwest 447 514 40,000  Level Atlanta Center
07:55AM 35.0642 -84.5208 236° Southwest 437 503 40,000  Level Atlanta Center
07:56AM 34.9969 -84.6397 235° Southwest 442 509 40,000  Level Atlanta Center
07:57AM 34.9275 -84.7583 234° Southwest 442 509 40,000  Level Atlanta Center
07:58AM 34.8600 -84.8792 236° Southwest 447 514 40,000  Level Atlanta Center
07:59AM 34.7922 -84.9975 235° Southwest 442 509 40,000  Level Atlanta Center
08:00AM 34.7247 -85.1128 235° Southwest 442 509 40,000  Level Atlanta Center
08:01AM 34.6589 -85.2308 236° Southwest 437 503 40,000  Level Atlanta Center
08:02AM 34.5886 -85.3508 235° Southwest 437 503 40,000  Level Atlanta Center
08:03AM 34.5206 -85.4658 234° Southwest 437 503 40,000  Level Atlanta Center
08:04AM 34.4503 -85.5856 235° Southwest 437 503 40,000  Level Atlanta Center
08:05AM 34.3969 -85.6800 236° Southwest 437 503 40,000  Level Atlanta Center
08:06AM 34.3306 -85.8022 237° Southwest 437 503 40,000  Level Atlanta Center
08:07AM 34.2514 -85.9261 232° Southwest 437 503 40,000  Level Atlanta Center
08:08AM 34.1808 -86.0425 234° Southwest 437 503 40,000  Level Atlanta Center
08:09AM 34.1119 -86.1589 234° Southwest 437 503 40,000  Level Atlanta Center
08:10AM 34.0411 -86.2750 234° Southwest 437 503 40,000  Level Atlanta Center
08:11AM 33.9742 -86.3908 235° Southwest 437 503 40,000  Level Atlanta Center
08:12AM 33.9053 -86.5042 234° Southwest 432 497 40,000  Level Atlanta Center
08:13AM 33.8383 -86.6172 235° Southwest 432 497 40,000  Level Atlanta Center
08:14AM 33.7692 -86.7300 234° Southwest 426 490 40,000  Level Atlanta Center
08:15AM 33.7019 -86.8428 234° Southwest 426 490 40,000  Level Atlanta Center
08:16AM 33.6447 -86.9608 240° Southwest 419 482 40,000  Level Atlanta Center
08:17AM 33.5894 -87.0911 243° Southwest 408 470 40,000  Level Atlanta Center
08:18AM 33.5406 -87.2139 244° Southwest 408 470 40,000  Level Atlanta Center
08:21AM 33.4319 -87.4872 245° Southwest 408 470 40,000  Level Memphis Center
08:22AM 33.3825 -87.6058 243° Southwest 408 470 40,000  Level Memphis Center
08:23AM 33.3350 -87.7292 245° Southwest 408 470 40,000  Level Memphis Center
08:24AM 33.2853 -87.8497 244° Southwest 408 470 40,000  Level Memphis Center
08:25AM 33.2375 -87.9703 245° Southwest 408 470 40,000  Level Memphis Center
08:26AM 33.1878 -88.0883 243° Southwest 402 463 40,000  Level Memphis Center
08:27AM 33.1375 -88.2089 244° Southwest 402 463 40,000  Level Memphis Center
08:28AM 33.0894 -88.3314 245° Southwest 402 463 40,000  Level Memphis Center
08:29AM 33.0414 -88.4467 244° Southwest 402 463 40,000  Level Memphis Center
08:30AM 32.9931 -88.5689 245° Southwest 402 463 40,000  Level Memphis Center
08:31AM 32.9403 -88.6889 242° Southwest 402 463 40,000  Level Memphis Center
08:32AM 32.8919 -88.8061 244° Southwest 402 463 40,000  Level Memphis Center
08:33AM 32.8411 -88.9231 243° Southwest 402 463 40,000  Level Memphis Center
08:34AM 32.7942 -89.0375 244° Southwest 402 463 40,000  Level Memphis Center
08:35AM 32.7433 -89.1569 243° Southwest 402 463 40,000  Level Memphis Center
08:36AM 32.6942 -89.2711 243° Southwest 402 463 40,000  Level Memphis Center
08:37AM 32.6431 -89.3878 243° Southwest 397 457 40,000  Level Memphis Center
08:38AM 32.5939 -89.5042 243° Southwest 397 457 40,000  Level Memphis Center
08:39AM 32.5444 -89.6181 243° Southwest 397 457 40,000  Level Memphis Center
08:40AM 32.4950 -89.7367 244° Southwest 397 457 40,000  Level Memphis Center
08:41AM 32.4433 -89.8528 242° Southwest 397 457 40,000  Level Memphis Center
08:42AM 32.3936 -89.9661 243° Southwest 397 457 40,000  Level Memphis Center
08:43AM 32.3439 -90.0844 244° Southwest 392 451 40,000  Level Memphis Center
08:44AM 32.2939 -90.1975 242° Southwest 392 451 40,000  Level Memphis Center
08:45AM 32.2439 -90.3131 243° Southwest 392 451 40,000  Level Memphis Center
08:46AM 32.1917 -90.4286 242° Southwest 387 445 40,000  Level Memphis Center
08:47AM 32.1417 -90.5414 242° Southwest 387 445 40,000  Level Memphis Center
08:47AM 32.1175 -90.6039 245° Southwest 394 453 40,000  Level Houston Center
08:48AM 32.0664 -90.7161 242° Southwest 392 451 40,000  Level Houston Center
08:49AM 32.0114 -90.8433 243° Southwest 390 449 40,000  Level Houston Center
08:50AM 31.9600 -90.9558 242° Southwest 391 450 40,000  Level Houston Center
08:51AM 31.9103 -91.0697 243° Southwest 391 450 40,000  Level Houston Center
08:52AM 31.8583 -91.1825 242° Southwest 392 451 40,000  Level Houston Center
08:53AM 31.8072 -91.2958 242° Southwest 392 451 40,000  Level Houston Center
08:54AM 31.7558 -91.4089 242° Southwest 394 453 40,000  Level Houston Center
08:55AM 31.6956 -91.5450 243° Southwest 393 452 40,000  Level Houston Center
08:56AM 31.6442 -91.6575 242° Southwest 391 450 40,000  Level Houston Center
08:58AM 31.5925 -91.7708 242° Southwest 394 453 40,000  Level Houston Center
08:59AM 31.5411 -91.8831 242° Southwest 392 451 40,000  Level Houston Center
09:00AM 31.4894 -91.9953 242° Southwest 392 451 40,000  Level Houston Center
09:01AM 31.4300 -92.1239 242° Southwest 390 449 40,000  Level Houston Center
09:02AM 31.3794 -92.2353 242° Southwest 388 447 40,000  Level Houston Center
09:03AM 31.3278 -92.3450 241° Southwest 386 444 40,000  Level Houston Center
09:04AM 31.2775 -92.4553 242° Southwest 386 444 40,000  Level Houston Center
09:05AM 31.2317 -92.5667 244° Southwest 383 441 40,000  Level Houston Center
09:06AM 31.1903 -92.6814 247° West 383 441 40,000  Level Houston Center
09:07AM 31.1489 -92.7936 247° West 379 436 40,000  Level Houston Center
09:08AM 31.0986 -92.9283 246° West 379 436 40,000  Level Houston Center
09:09AM 31.0569 -93.0422 247° West 384 442 40,000  Level Houston Center
09:10AM 31.0153 -93.1561 247° West 383 441 40,000  Level Houston Center
09:11AM 30.9714 -93.2692 246° West 386 444 40,000  Level Houston Center
09:12AM 30.9300 -93.3819 247° West 382 440 40,000  Level Houston Center
09:13AM 30.8872 -93.4956 246° West 384 442 40,000 -1,140 Level Houston Center
09:14AM 30.8375 -93.6294 247° West 381 438 37,700 -2,460 Descending Houston Center
09:15AM 30.7950 -93.7400 246° West 379 436 35,000 -2,400 Descending Houston Center
09:16AM 30.7528 -93.8522 246° West 381 438 32,800 -2,160 Descending Houston Center
09:17AM 30.7108 -93.9619 246° West 377 434 30,600 -2,100 Descending Houston Center
09:18AM 30.6694 -94.0686 246° West 367 422 28,500 -2,040 Descending Houston Center
09:19AM 30.6294 -94.1733 246° West 359 413 26,400 -2,220 Descending Houston Center
09:20AM 30.6058 -94.2356 246° West 352 405 25,200 -2,400 Descending Houston Center
09:20AM 30.5825 -94.2956 246° West 348 400 24,000 -2,100 Descending Houston Center
09:21AM 30.5522 -94.3739 246° West 342 394 22,500 -1,980 Descending Houston Center
09:21AM 30.5442 -94.3947 246° West 342 394 22,000 -1,980 Descending Houston Center
09:22AM 30.5169 -94.4633 245° Southwest 341 392 20,700 -2,040 Descending Houston Center
09:22AM 30.5031 -94.5000 246° West 339 390 19,900 -1,980 Descending Houston Center
09:23AM 30.4694 -94.5569 236° Southwest 334 384 18,700 -1,860 Descending Houston Center
09:23AM 30.4500 -94.5883 234° Southwest 334 384 18,000 -1,980 Descending Houston Center
09:24AM 30.4144 -94.6417 232° Southwest 329 379 16,700 -1,980 Descending Houston Center
09:24AM 30.3939 -94.6758 235° Southwest 329 379 16,000 -2,040 Descending Houston Center
09:25AM 30.3581 -94.7311 233° Southwest 330 380 14,700 -1,980 Descending Houston Center
09:25AM 30.3392 -94.7611 234° Southwest 330 380 14,000 -1,620 Descending Houston Center
09:26AM 30.2975 -94.8236 232° Southwest 325 374 12,900 -1,260 Descending Houston Center
09:26AM 30.2850 -94.8431 233° Southwest 323 372 12,700 -840 Descending Houston Center
09:27AM 30.2461 -94.9028 233° Southwest 333 383 12,100 -900 Descending Houston Center
09:27AM 30.2292 -94.9294 234° Southwest 334 384 11,800 -1,080 Descending Houston Center
09:28AM 30.1914 -94.9894 234° Southwest 336 387 11,100 -1,020 Descending Houston Center
09:28AM 30.1742 -95.0153 232° Southwest 333 383 10,800 -1,020 Descending Houston Center
09:29AM 30.1297 -95.0719 228° Southwest 324 373 10,100 -780 Descending Houston Center
09:29AM 30.1081 -95.0817 201° Southwest 331 381 10,000 -120 Descending Houston Center
09:30AM 30.0553 -95.1053 201° Southwest 322 371 10,000 -120 Level Houston Center
09:30AM 30.0092 -95.1258 201° Southwest 321 369 9,900 -840 Descending Houston Center
09:31AM 29.9683 -95.1425 199° South 287 330 9,100 -1,500 Descending Houston Center
09:31AM 29.9339 -95.1581 201° Southwest 300 345 8,400 -1,320 Descending Houston Center
09:32AM 29.8997 -95.1728 200° South 284 327 7,900 -1,260 Descending Houston Center
09:33AM 29.8622 -95.1886 200° South 281 323 7,100 -1,200 Descending Houston Center
09:33AM 29.8311 -95.2028 202° Southwest 262 302 6,700 -1,080 Descending Houston Center
09:34AM 29.8142 -95.2375 241° Southwest 252 290 6,000 -1,260 Descending Houston Center
09:34AM 29.7992 -95.2669 240° Southwest 219 252 5,400 -1,500 Descending Houston Center
09:35AM 29.7925 -95.3000 257° West 220 253 4,500 -2,100 Descending Houston Center
09:35AM 29.7817 -95.3267 245° Southwest 173 199 3,300 -2,280 Descending Houston Center
09:36AM 29.7522 -95.3417 204° Southwest 185 213 2,200 -1,320 Descending Houston Center
09:36AM 29.7350 -95.3444 188° South 169 194 2,000 -780 Descending Houston Center
09:37AM 29.7092 -95.3433 178° South 171 197 1,400 -720 Descending Houston Center
09:37AM 29.6964 -95.3369 157° South 135 155 1,300 -540 Descending Houston Center
09:38AM 29.6797 -95.3208 140° Southeast 143 165 900 -600 Descending Houston Center
09:38AM 29.6711 -95.3111 136° Southeast 117 135 700 -720 Descending Houston Center
09:39AM 29.6569 -95.2936 133° Southeast 127 146 200 -720 Descending Houston Center